sensor_id;sensor_type;location;lat;lon;timestamp;P1;durP1;ratioP1;P2;durP2;ratioP2
38264;SDS011;24062;47.480;8.768;2024-02-21T00:01:27;2.90;;;1.03;;
38264;SDS011;24062;47.480;8.768;2024-02-21T00:03:54;2.00;;;1.10;;
38264;SDS011;24062;47.480;8.768;2024-02-21T00:06:21;2.20;;;0.90;;
38264;SDS011;24062;47.480;8.768;2024-02-21T00:08:50;3.33;;;1.00;;
38264;SDS011;24062;47.480;8.768;2024-02-21T00:11:16;2.63;;;1.00;;
38264;SDS011;24062;47.480;8.768;2024-02-21T00:13:43;1.77;;;0.97;;
38264;SDS011;24062;47.480;8.768;2024-02-21T00:16:10;1.80;;;1.00;;
38264;SDS011;24062;47.480;8.768;2024-02-21T00:18:38;1.80;;;0.93;;
38264;SDS011;24062;47.480;8.768;2024-02-21T00:21:05;1.70;;;0.80;;
38264;SDS011;24062;47.480;8.768;2024-02-21T00:23:32;2.43;;;1.07;;
38264;SDS011;24062;47.480;8.768;2024-02-21T00:26:00;4.13;;;0.90;;
38264;SDS011;24062;47.480;8.768;2024-02-21T00:28:27;2.57;;;1.00;;
38264;SDS011;24062;47.480;8.768;2024-02-21T00:30:55;2.13;;;1.00;;
38264;SDS011;24062;47.480;8.768;2024-02-21T00:33:22;1.77;;;1.03;;
38264;SDS011;24062;47.480;8.768;2024-02-21T00:35:49;2.50;;;1.20;;
38264;SDS011;24062;47.480;8.768;2024-02-21T00:38:15;2.33;;;1.00;;
38264;SDS011;24062;47.480;8.768;2024-02-21T00:40:42;1.70;;;1.00;;
38264;SDS011;24062;47.480;8.768;2024-02-21T00:43:10;2.40;;;1.20;;
38264;SDS011;24062;47.480;8.768;2024-02-21T00:45:37;3.00;;;0.90;;
38264;SDS011;24062;47.480;8.768;2024-02-21T00:48:04;2.80;;;0.90;;
38264;SDS011;24062;47.480;8.768;2024-02-21T00:50:32;2.33;;;1.10;;
38264;SDS011;24062;47.480;8.768;2024-02-21T00:52:58;2.70;;;1.00;;
38264;SDS011;24062;47.480;8.768;2024-02-21T00:55:25;2.80;;;0.87;;
38264;SDS011;24062;47.480;8.768;2024-02-21T00:57:52;1.87;;;0.87;;
38264;SDS011;24062;47.480;8.768;2024-02-21T01:00:21;1.60;;;0.70;;
38264;SDS011;24062;47.480;8.768;2024-02-21T01:02:48;1.97;;;0.83;;
38264;SDS011;24062;47.480;8.768;2024-02-21T01:05:15;3.33;;;0.60;;
38264;SDS011;24062;47.480;8.768;2024-02-21T01:07:41;3.63;;;0.80;;
38264;SDS011;24062;47.480;8.768;2024-02-21T01:10:08;3.13;;;1.00;;
38264;SDS011;24062;47.480;8.768;2024-02-21T01:12:35;1.47;;;0.80;;
38264;SDS011;24062;47.480;8.768;2024-02-21T01:15:03;2.23;;;1.20;;
38264;SDS011;24062;47.480;8.768;2024-02-21T01:17:31;1.53;;;0.80;;
38264;SDS011;24062;47.480;8.768;2024-02-21T01:19:58;1.63;;;0.67;;
38264;SDS011;24062;47.480;8.768;2024-02-21T01:22:25;3.53;;;0.80;;
38264;SDS011;24062;47.480;8.768;2024-02-21T01:24:52;1.40;;;0.70;;
38264;SDS011;24062;47.480;8.768;2024-02-21T01:27:19;2.63;;;1.07;;
38264;SDS011;24062;47.480;8.768;2024-02-21T01:29:46;1.60;;;0.77;;
38264;SDS011;24062;47.480;8.768;2024-02-21T01:32:14;2.40;;;1.10;;
38264;SDS011;24062;47.480;8.768;2024-02-21T01:34:43;2.33;;;1.10;;
38264;SDS011;24062;47.480;8.768;2024-02-21T01:37:09;1.77;;;0.70;;
38264;SDS011;24062;47.480;8.768;2024-02-21T01:39:36;1.80;;;0.80;;
38264;SDS011;24062;47.480;8.768;2024-02-21T01:42:03;1.53;;;0.87;;
38264;SDS011;24062;47.480;8.768;2024-02-21T01:44:31;1.50;;;0.80;;
38264;SDS011;24062;47.480;8.768;2024-02-21T01:46:58;2.70;;;0.80;;
38264;SDS011;24062;47.480;8.768;2024-02-21T01:49:25;1.40;;;0.83;;
38264;SDS011;24062;47.480;8.768;2024-02-21T01:51:53;2.80;;;0.90;;
38264;SDS011;24062;47.480;8.768;2024-02-21T01:54:21;1.33;;;0.60;;
38264;SDS011;24062;47.480;8.768;2024-02-21T01:56:48;2.00;;;0.87;;
38264;SDS011;24062;47.480;8.768;2024-02-21T01:59:16;2.77;;;0.80;;
38264;SDS011;24062;47.480;8.768;2024-02-21T02:01:44;1.80;;;0.70;;
38264;SDS011;24062;47.480;8.768;2024-02-21T02:04:13;2.07;;;0.87;;
38264;SDS011;24062;47.480;8.768;2024-02-21T02:06:40;1.53;;;0.73;;
38264;SDS011;24062;47.480;8.768;2024-02-21T02:09:08;1.80;;;0.90;;
38264;SDS011;24062;47.480;8.768;2024-02-21T02:11:35;2.17;;;0.80;;
38264;SDS011;24062;47.480;8.768;2024-02-21T02:14:02;1.70;;;0.70;;
38264;SDS011;24062;47.480;8.768;2024-02-21T02:16:29;1.50;;;0.60;;
38264;SDS011;24062;47.480;8.768;2024-02-21T02:18:59;3.07;;;0.80;;
38264;SDS011;24062;47.480;8.768;2024-02-21T02:21:27;1.70;;;0.80;;
38264;SDS011;24062;47.480;8.768;2024-02-21T02:23:57;1.40;;;0.70;;
38264;SDS011;24062;47.480;8.768;2024-02-21T02:26:25;1.60;;;0.70;;
38264;SDS011;24062;47.480;8.768;2024-02-21T02:28:52;1.50;;;0.90;;
38264;SDS011;24062;47.480;8.768;2024-02-21T02:31:19;1.80;;;0.87;;
38264;SDS011;24062;47.480;8.768;2024-02-21T02:33:46;1.80;;;0.80;;
38264;SDS011;24062;47.480;8.768;2024-02-21T02:36:14;4.70;;;0.80;;
38264;SDS011;24062;47.480;8.768;2024-02-21T02:38:41;1.57;;;0.80;;
38264;SDS011;24062;47.480;8.768;2024-02-21T02:41:09;2.60;;;0.70;;
38264;SDS011;24062;47.480;8.768;2024-02-21T02:43:36;1.73;;;0.73;;
38264;SDS011;24062;47.480;8.768;2024-02-21T02:46:03;1.47;;;0.60;;
38264;SDS011;24062;47.480;8.768;2024-02-21T02:48:30;1.40;;;0.60;;
38264;SDS011;24062;47.480;8.768;2024-02-21T02:50:57;1.50;;;0.70;;
38264;SDS011;24062;47.480;8.768;2024-02-21T02:53:23;1.50;;;0.70;;
38264;SDS011;24062;47.480;8.768;2024-02-21T02:55:50;1.90;;;0.70;;
38264;SDS011;24062;47.480;8.768;2024-02-21T02:58:19;1.80;;;0.90;;
38264;SDS011;24062;47.480;8.768;2024-02-21T03:00:45;1.80;;;0.73;;
38264;SDS011;24062;47.480;8.768;2024-02-21T03:03:12;1.60;;;0.70;;
38264;SDS011;24062;47.480;8.768;2024-02-21T03:05:39;2.07;;;0.90;;
38264;SDS011;24062;47.480;8.768;2024-02-21T03:08:06;1.50;;;0.70;;
38264;SDS011;24062;47.480;8.768;2024-02-21T03:10:33;1.57;;;0.93;;
38264;SDS011;24062;47.480;8.768;2024-02-21T03:13:00;1.80;;;0.60;;
38264;SDS011;24062;47.480;8.768;2024-02-21T03:15:28;2.47;;;0.97;;
38264;SDS011;24062;47.480;8.768;2024-02-21T03:17:55;1.60;;;0.70;;
38264;SDS011;24062;47.480;8.768;2024-02-21T03:20:22;1.50;;;0.80;;
38264;SDS011;24062;47.480;8.768;2024-02-21T03:22:48;1.53;;;0.80;;
38264;SDS011;24062;47.480;8.768;2024-02-21T03:25:16;1.63;;;0.70;;
38264;SDS011;24062;47.480;8.768;2024-02-21T03:27:44;1.53;;;0.77;;
38264;SDS011;24062;47.480;8.768;2024-02-21T03:30:12;1.20;;;0.50;;
38264;SDS011;24062;47.480;8.768;2024-02-21T03:32:40;1.83;;;0.80;;
38264;SDS011;24062;47.480;8.768;2024-02-21T03:35:07;1.50;;;0.60;;
38264;SDS011;24062;47.480;8.768;2024-02-21T03:37:34;1.40;;;0.60;;
38264;SDS011;24062;47.480;8.768;2024-02-21T03:40:01;1.57;;;0.60;;
38264;SDS011;24062;47.480;8.768;2024-02-21T03:42:28;1.67;;;0.60;;
38264;SDS011;24062;47.480;8.768;2024-02-21T03:44:56;1.43;;;0.63;;
38264;SDS011;24062;47.480;8.768;2024-02-21T03:47:23;1.30;;;0.57;;
38264;SDS011;24062;47.480;8.768;2024-02-21T03:49:51;1.70;;;0.73;;
38264;SDS011;24062;47.480;8.768;2024-02-21T03:52:18;1.50;;;0.63;;
38264;SDS011;24062;47.480;8.768;2024-02-21T03:54:45;1.50;;;0.70;;
38264;SDS011;24062;47.480;8.768;2024-02-21T03:57:12;1.40;;;0.57;;
38264;SDS011;24062;47.480;8.768;2024-02-21T03:59:39;1.40;;;0.60;;
38264;SDS011;24062;47.480;8.768;2024-02-21T04:02:06;1.40;;;0.70;;
38264;SDS011;24062;47.480;8.768;2024-02-21T04:04:34;1.50;;;0.80;;
38264;SDS011;24062;47.480;8.768;2024-02-21T04:07:04;1.40;;;0.60;;
38264;SDS011;24062;47.480;8.768;2024-02-21T04:09:32;1.30;;;0.50;;
38264;SDS011;24062;47.480;8.768;2024-02-21T04:11:59;2.13;;;0.60;;
38264;SDS011;24062;47.480;8.768;2024-02-21T04:14:27;1.40;;;0.60;;
38264;SDS011;24062;47.480;8.768;2024-02-21T04:16:53;1.23;;;0.60;;
38264;SDS011;24062;47.480;8.768;2024-02-21T04:19:20;1.40;;;0.60;;
38264;SDS011;24062;47.480;8.768;2024-02-21T04:21:47;1.37;;;0.50;;
38264;SDS011;24062;47.480;8.768;2024-02-21T04:24:15;1.23;;;0.50;;
38264;SDS011;24062;47.480;8.768;2024-02-21T04:26:42;1.53;;;0.70;;
38264;SDS011;24062;47.480;8.768;2024-02-21T04:29:09;1.50;;;0.60;;
38264;SDS011;24062;47.480;8.768;2024-02-21T04:31:37;1.40;;;0.50;;
38264;SDS011;24062;47.480;8.768;2024-02-21T04:34:05;1.50;;;0.60;;
38264;SDS011;24062;47.480;8.768;2024-02-21T04:36:32;1.30;;;0.50;;
38264;SDS011;24062;47.480;8.768;2024-02-21T04:38:59;1.30;;;0.50;;
38264;SDS011;24062;47.480;8.768;2024-02-21T04:41:27;1.60;;;0.60;;
38264;SDS011;24062;47.480;8.768;2024-02-21T04:43:54;1.20;;;0.53;;
38264;SDS011;24062;47.480;8.768;2024-02-21T04:46:21;1.20;;;0.50;;
38264;SDS011;24062;47.480;8.768;2024-02-21T04:48:48;1.40;;;0.60;;
38264;SDS011;24062;47.480;8.768;2024-02-21T04:51:15;1.40;;;0.50;;
38264;SDS011;24062;47.480;8.768;2024-02-21T04:53:42;1.40;;;0.60;;
38264;SDS011;24062;47.480;8.768;2024-02-21T04:56:09;1.20;;;0.47;;
38264;SDS011;24062;47.480;8.768;2024-02-21T04:58:38;1.30;;;0.60;;
38264;SDS011;24062;47.480;8.768;2024-02-21T05:01:06;1.20;;;0.50;;
38264;SDS011;24062;47.480;8.768;2024-02-21T05:03:33;1.50;;;0.53;;
38264;SDS011;24062;47.480;8.768;2024-02-21T05:06:00;1.40;;;0.50;;
38264;SDS011;24062;47.480;8.768;2024-02-21T05:08:26;1.30;;;0.50;;
38264;SDS011;24062;47.480;8.768;2024-02-21T05:10:53;1.30;;;0.50;;
38264;SDS011;24062;47.480;8.768;2024-02-21T05:13:20;1.40;;;0.60;;
38264;SDS011;24062;47.480;8.768;2024-02-21T05:15:48;1.50;;;0.60;;
38264;SDS011;24062;47.480;8.768;2024-02-21T05:18:15;1.10;;;0.40;;
38264;SDS011;24062;47.480;8.768;2024-02-21T05:20:42;1.60;;;0.67;;
38264;SDS011;24062;47.480;8.768;2024-02-21T05:23:09;1.30;;;0.60;;
38264;SDS011;24062;47.480;8.768;2024-02-21T05:25:36;1.43;;;0.80;;
38264;SDS011;24062;47.480;8.768;2024-02-21T05:28:03;1.40;;;0.50;;
38264;SDS011;24062;47.480;8.768;2024-02-21T05:30:31;1.47;;;0.60;;
38264;SDS011;24062;47.480;8.768;2024-02-21T05:33:03;1.40;;;0.50;;
38264;SDS011;24062;47.480;8.768;2024-02-21T05:35:30;1.73;;;0.60;;
38264;SDS011;24062;47.480;8.768;2024-02-21T05:37:57;1.40;;;0.60;;
38264;SDS011;24062;47.480;8.768;2024-02-21T05:40:25;1.70;;;0.50;;
38264;SDS011;24062;47.480;8.768;2024-02-21T05:42:52;1.40;;;0.60;;
38264;SDS011;24062;47.480;8.768;2024-02-21T05:45:18;2.53;;;0.70;;
38264;SDS011;24062;47.480;8.768;2024-02-21T05:47:45;1.10;;;0.40;;
38264;SDS011;24062;47.480;8.768;2024-02-21T05:50:13;1.30;;;0.60;;
38264;SDS011;24062;47.480;8.768;2024-02-21T05:52:40;2.07;;;0.77;;
38264;SDS011;24062;47.480;8.768;2024-02-21T05:55:07;1.57;;;0.67;;
38264;SDS011;24062;47.480;8.768;2024-02-21T05:57:35;2.00;;;0.57;;
38264;SDS011;24062;47.480;8.768;2024-02-21T06:00:03;1.30;;;0.60;;
38264;SDS011;24062;47.480;8.768;2024-02-21T06:02:31;1.30;;;0.60;;
38264;SDS011;24062;47.480;8.768;2024-02-21T06:04:58;1.23;;;0.50;;
38264;SDS011;24062;47.480;8.768;2024-02-21T06:07:26;1.20;;;0.50;;
38264;SDS011;24062;47.480;8.768;2024-02-21T06:09:53;2.27;;;0.60;;
38264;SDS011;24062;47.480;8.768;2024-02-21T06:12:20;1.87;;;0.60;;
38264;SDS011;24062;47.480;8.768;2024-02-21T06:14:47;1.50;;;0.60;;
38264;SDS011;24062;47.480;8.768;2024-02-21T06:17:14;2.27;;;0.60;;
38264;SDS011;24062;47.480;8.768;2024-02-21T06:22:09;1.40;;;0.63;;
38264;SDS011;24062;47.480;8.768;2024-02-21T06:24:37;4.10;;;0.70;;
38264;SDS011;24062;47.480;8.768;2024-02-21T06:27:04;1.43;;;0.63;;
38264;SDS011;24062;47.480;8.768;2024-02-21T06:29:32;1.40;;;0.60;;
38264;SDS011;24062;47.480;8.768;2024-02-21T06:31:58;1.50;;;0.53;;
38264;SDS011;24062;47.480;8.768;2024-02-21T06:34:25;2.13;;;0.60;;
38264;SDS011;24062;47.480;8.768;2024-02-21T06:36:52;1.40;;;0.57;;
38264;SDS011;24062;47.480;8.768;2024-02-21T06:39:19;1.80;;;0.70;;
38264;SDS011;24062;47.480;8.768;2024-02-21T06:41:49;1.10;;;0.40;;
38264;SDS011;24062;47.480;8.768;2024-02-21T06:44:17;1.70;;;0.60;;
38264;SDS011;24062;47.480;8.768;2024-02-21T06:46:44;1.70;;;0.60;;
38264;SDS011;24062;47.480;8.768;2024-02-21T06:49:11;2.83;;;0.60;;
38264;SDS011;24062;47.480;8.768;2024-02-21T06:51:40;2.60;;;0.63;;
38264;SDS011;24062;47.480;8.768;2024-02-21T06:54:07;6.10;;;0.80;;
38264;SDS011;24062;47.480;8.768;2024-02-21T06:56:35;2.47;;;0.60;;
38264;SDS011;24062;47.480;8.768;2024-02-21T06:59:04;1.80;;;0.70;;
38264;SDS011;24062;47.480;8.768;2024-02-21T07:01:31;5.97;;;0.83;;
38264;SDS011;24062;47.480;8.768;2024-02-21T07:03:58;2.80;;;0.77;;
38264;SDS011;24062;47.480;8.768;2024-02-21T07:06:25;1.70;;;0.63;;
38264;SDS011;24062;47.480;8.768;2024-02-21T07:08:52;1.97;;;0.70;;
38264;SDS011;24062;47.480;8.768;2024-02-21T07:11:19;3.30;;;0.70;;
38264;SDS011;24062;47.480;8.768;2024-02-21T07:13:46;3.00;;;0.70;;
38264;SDS011;24062;47.480;8.768;2024-02-21T07:16:14;1.40;;;0.60;;
38264;SDS011;24062;47.480;8.768;2024-02-21T07:18:41;2.63;;;0.80;;
38264;SDS011;24062;47.480;8.768;2024-02-21T07:21:08;2.10;;;0.87;;
38264;SDS011;24062;47.480;8.768;2024-02-21T07:23:35;1.53;;;0.60;;
38264;SDS011;24062;47.480;8.768;2024-02-21T07:26:02;3.13;;;0.67;;
38264;SDS011;24062;47.480;8.768;2024-02-21T07:28:30;2.50;;;0.70;;
38264;SDS011;24062;47.480;8.768;2024-02-21T07:30:58;1.53;;;0.57;;
38264;SDS011;24062;47.480;8.768;2024-02-21T07:33:26;2.73;;;0.60;;
38264;SDS011;24062;47.480;8.768;2024-02-21T07:35:53;2.43;;;0.63;;
38264;SDS011;24062;47.480;8.768;2024-02-21T07:38:20;1.30;;;0.67;;
38264;SDS011;24062;47.480;8.768;2024-02-21T07:40:47;1.60;;;0.73;;
38264;SDS011;24062;47.480;8.768;2024-02-21T07:43:14;5.10;;;0.80;;
38264;SDS011;24062;47.480;8.768;2024-02-21T07:45:41;3.20;;;0.60;;
38264;SDS011;24062;47.480;8.768;2024-02-21T07:48:08;2.23;;;0.83;;
38264;SDS011;24062;47.480;8.768;2024-02-21T07:50:36;1.97;;;0.70;;
38264;SDS011;24062;47.480;8.768;2024-02-21T07:53:03;1.70;;;0.90;;
38264;SDS011;24062;47.480;8.768;2024-02-21T07:55:30;1.90;;;0.60;;
38264;SDS011;24062;47.480;8.768;2024-02-21T07:57:57;1.30;;;0.60;;
38264;SDS011;24062;47.480;8.768;2024-02-21T08:00:24;1.50;;;0.70;;
38264;SDS011;24062;47.480;8.768;2024-02-21T08:02:51;1.80;;;0.80;;
38264;SDS011;24062;47.480;8.768;2024-02-21T08:05:18;1.70;;;0.80;;
38264;SDS011;24062;47.480;8.768;2024-02-21T08:07:48;1.93;;;0.80;;
38264;SDS011;24062;47.480;8.768;2024-02-21T08:10:14;3.83;;;0.73;;
38264;SDS011;24062;47.480;8.768;2024-02-21T08:12:41;1.40;;;0.60;;
38264;SDS011;24062;47.480;8.768;2024-02-21T08:15:08;1.80;;;0.80;;
38264;SDS011;24062;47.480;8.768;2024-02-21T08:17:37;2.03;;;0.70;;
38264;SDS011;24062;47.480;8.768;2024-02-21T08:20:04;1.30;;;0.50;;
38264;SDS011;24062;47.480;8.768;2024-02-21T08:22:32;2.30;;;0.73;;
38264;SDS011;24062;47.480;8.768;2024-02-21T08:25:00;4.07;;;0.90;;
38264;SDS011;24062;47.480;8.768;2024-02-21T08:27:30;2.47;;;0.70;;
38264;SDS011;24062;47.480;8.768;2024-02-21T08:29:57;2.23;;;0.67;;
38264;SDS011;24062;47.480;8.768;2024-02-21T08:32:24;3.10;;;0.90;;
38264;SDS011;24062;47.480;8.768;2024-02-21T08:34:51;1.83;;;0.87;;
38264;SDS011;24062;47.480;8.768;2024-02-21T08:37:18;2.90;;;0.60;;
38264;SDS011;24062;47.480;8.768;2024-02-21T08:39:44;1.97;;;0.90;;
38264;SDS011;24062;47.480;8.768;2024-02-21T08:42:14;3.50;;;0.80;;
38264;SDS011;24062;47.480;8.768;2024-02-21T08:44:41;1.47;;;0.73;;
38264;SDS011;24062;47.480;8.768;2024-02-21T08:47:08;1.50;;;0.70;;
38264;SDS011;24062;47.480;8.768;2024-02-21T08:49:35;2.63;;;0.80;;
38264;SDS011;24062;47.480;8.768;2024-02-21T08:52:02;1.90;;;0.63;;
38264;SDS011;24062;47.480;8.768;2024-02-21T08:54:30;1.40;;;0.60;;
38264;SDS011;24062;47.480;8.768;2024-02-21T08:56:57;1.77;;;0.90;;
38264;SDS011;24062;47.480;8.768;2024-02-21T08:59:26;2.80;;;0.90;;
38264;SDS011;24062;47.480;8.768;2024-02-21T09:01:52;4.10;;;0.80;;
38264;SDS011;24062;47.480;8.768;2024-02-21T09:04:19;2.22;;;1.00;;
38264;SDS011;24062;47.480;8.768;2024-02-21T09:06:46;1.60;;;0.77;;
38264;SDS011;24062;47.480;8.768;2024-02-21T09:09:13;2.08;;;1.20;;
38264;SDS011;24062;47.480;8.768;2024-02-21T09:11:40;1.80;;;0.85;;
38264;SDS011;24062;47.480;8.768;2024-02-21T09:14:07;1.60;;;0.68;;
38264;SDS011;24062;47.480;8.768;2024-02-21T09:16:35;5.13;;;0.80;;
38264;SDS011;24062;47.480;8.768;2024-02-21T09:19:02;1.75;;;0.75;;
38264;SDS011;24062;47.480;8.768;2024-02-21T09:21:29;2.85;;;0.70;;
38264;SDS011;24062;47.480;8.768;2024-02-21T09:23:56;1.38;;;0.50;;
38264;SDS011;24062;47.480;8.768;2024-02-21T09:26:22;4.50;;;0.60;;
38264;SDS011;24062;47.480;8.768;2024-02-21T09:28:49;1.40;;;0.70;;
38264;SDS011;24062;47.480;8.768;2024-02-21T09:31:16;2.15;;;0.70;;
38264;SDS011;24062;47.480;8.768;2024-02-21T09:33:45;1.90;;;0.70;;
38264;SDS011;24062;47.480;8.768;2024-02-21T09:36:11;1.60;;;0.68;;
38264;SDS011;24062;47.480;8.768;2024-02-21T09:38:39;4.70;;;0.93;;
38264;SDS011;24062;47.480;8.768;2024-02-21T09:41:12;1.30;;;0.60;;
38264;SDS011;24062;47.480;8.768;2024-02-21T09:43:43;1.40;;;0.57;;
38264;SDS011;24062;47.480;8.768;2024-02-21T09:46:13;1.80;;;0.70;;
38264;SDS011;24062;47.480;8.768;2024-02-21T09:48:49;2.10;;;0.70;;
38264;SDS011;24062;47.480;8.768;2024-02-21T09:51:30;1.60;;;0.65;;
38264;SDS011;24062;47.480;8.768;2024-02-21T09:53:58;1.50;;;0.70;;
38264;SDS011;24062;47.480;8.768;2024-02-21T09:56:26;3.05;;;0.75;;
38264;SDS011;24062;47.480;8.768;2024-02-21T09:58:53;1.50;;;0.75;;
38264;SDS011;24062;47.480;8.768;2024-02-21T10:01:21;1.73;;;1.00;;
38264;SDS011;24062;47.480;8.768;2024-02-21T10:03:49;2.33;;;0.70;;
38264;SDS011;24062;47.480;8.768;2024-02-21T10:06:16;1.70;;;0.80;;
38264;SDS011;24062;47.480;8.768;2024-02-21T10:08:43;1.60;;;0.80;;
38264;SDS011;24062;47.480;8.768;2024-02-21T10:11:09;1.38;;;0.70;;
38264;SDS011;24062;47.480;8.768;2024-02-21T10:13:36;3.35;;;0.95;;
38264;SDS011;24062;47.480;8.768;2024-02-21T10:16:04;2.00;;;0.80;;
38264;SDS011;24062;47.480;8.768;2024-02-21T10:18:31;1.40;;;0.60;;
38264;SDS011;24062;47.480;8.768;2024-02-21T10:21:04;1.70;;;0.65;;
38264;SDS011;24062;47.480;8.768;2024-02-21T10:23:41;1.80;;;0.82;;
38264;SDS011;24062;47.480;8.768;2024-02-21T10:26:08;1.60;;;0.70;;
38264;SDS011;24062;47.480;8.768;2024-02-21T10:28:36;1.92;;;0.60;;
38264;SDS011;24062;47.480;8.768;2024-02-21T10:31:07;1.40;;;0.60;;
38264;SDS011;24062;47.480;8.768;2024-02-21T10:33:34;1.80;;;0.65;;
38264;SDS011;24062;47.480;8.768;2024-02-21T10:36:09;2.37;;;0.80;;
38264;SDS011;24062;47.480;8.768;2024-02-21T10:38:37;1.60;;;0.80;;
38264;SDS011;24062;47.480;8.768;2024-02-21T10:41:04;1.50;;;0.70;;
38264;SDS011;24062;47.480;8.768;2024-02-21T10:43:33;2.53;;;0.97;;
38264;SDS011;24062;47.480;8.768;2024-02-21T10:46:05;2.30;;;0.80;;
38264;SDS011;24062;47.480;8.768;2024-02-21T10:48:34;2.43;;;1.07;;
38264;SDS011;24062;47.480;8.768;2024-02-21T10:51:11;2.70;;;0.80;;
38264;SDS011;24062;47.480;8.768;2024-02-21T10:53:44;2.33;;;0.70;;
38264;SDS011;24062;47.480;8.768;2024-02-21T10:56:18;1.70;;;0.80;;
38264;SDS011;24062;47.480;8.768;2024-02-21T10:58:49;2.27;;;0.70;;
38264;SDS011;24062;47.480;8.768;2024-02-21T11:01:17;2.20;;;0.80;;
38264;SDS011;24062;47.480;8.768;2024-02-21T11:03:45;1.50;;;0.70;;
38264;SDS011;24062;47.480;8.768;2024-02-21T11:06:15;2.73;;;0.60;;
38264;SDS011;24062;47.480;8.768;2024-02-21T11:08:44;2.17;;;0.63;;
38264;SDS011;24062;47.480;8.768;2024-02-21T11:11:12;1.83;;;0.90;;
38264;SDS011;24062;47.480;8.768;2024-02-21T11:13:42;2.20;;;0.97;;
38264;SDS011;24062;47.480;8.768;2024-02-21T11:16:11;3.03;;;0.80;;
38264;SDS011;24062;47.480;8.768;2024-02-21T11:18:48;2.10;;;0.70;;
38264;SDS011;24062;47.480;8.768;2024-02-21T11:21:16;2.00;;;0.97;;
38264;SDS011;24062;47.480;8.768;2024-02-21T11:23:43;1.53;;;0.70;;
38264;SDS011;24062;47.480;8.768;2024-02-21T11:26:19;2.20;;;1.10;;
38264;SDS011;24062;47.480;8.768;2024-02-21T11:28:55;3.03;;;1.20;;
38264;SDS011;24062;47.480;8.768;2024-02-21T11:31:22;3.20;;;1.57;;
38264;SDS011;24062;47.480;8.768;2024-02-21T11:33:52;6.47;;;2.70;;
38264;SDS011;24062;47.480;8.768;2024-02-21T11:36:24;4.37;;;2.60;;
38264;SDS011;24062;47.480;8.768;2024-02-21T11:38:51;6.00;;;2.70;;
38264;SDS011;24062;47.480;8.768;2024-02-21T11:41:19;5.17;;;2.97;;
38264;SDS011;24062;47.480;8.768;2024-02-21T11:43:46;6.47;;;3.20;;
38264;SDS011;24062;47.480;8.768;2024-02-21T11:46:14;7.67;;;3.47;;
38264;SDS011;24062;47.480;8.768;2024-02-21T11:48:41;8.57;;;3.47;;
38264;SDS011;24062;47.480;8.768;2024-02-21T11:51:09;9.03;;;3.43;;
38264;SDS011;24062;47.480;8.768;2024-02-21T11:53:38;10.97;;;3.90;;
38264;SDS011;24062;47.480;8.768;2024-02-21T11:56:06;13.10;;;4.00;;
38264;SDS011;24062;47.480;8.768;2024-02-21T11:58:33;10.90;;;3.57;;
38264;SDS011;24062;47.480;8.768;2024-02-21T12:01:00;6.77;;;3.87;;
38264;SDS011;24062;47.480;8.768;2024-02-21T12:03:28;9.03;;;3.93;;
38264;SDS011;24062;47.480;8.768;2024-02-21T12:05:54;7.07;;;4.10;;
38264;SDS011;24062;47.480;8.768;2024-02-21T12:08:23;6.20;;;4.40;;
38264;SDS011;24062;47.480;8.768;2024-02-21T12:10:52;7.20;;;4.17;;
38264;SDS011;24062;47.480;8.768;2024-02-21T12:13:19;6.37;;;3.70;;
38264;SDS011;24062;47.480;8.768;2024-02-21T12:15:49;7.10;;;4.10;;
38264;SDS011;24062;47.480;8.768;2024-02-21T12:18:16;10.20;;;4.30;;
38264;SDS011;24062;47.480;8.768;2024-02-21T12:20:43;8.80;;;4.30;;
38264;SDS011;24062;47.480;8.768;2024-02-21T12:23:11;8.53;;;4.93;;
38264;SDS011;24062;47.480;8.768;2024-02-21T12:25:38;7.67;;;4.23;;
38264;SDS011;24062;47.480;8.768;2024-02-21T12:28:06;10.30;;;4.93;;
38264;SDS011;24062;47.480;8.768;2024-02-21T12:30:33;8.00;;;4.90;;
38264;SDS011;24062;47.480;8.768;2024-02-21T12:33:03;9.33;;;4.47;;
38264;SDS011;24062;47.480;8.768;2024-02-21T12:35:30;13.97;;;5.00;;
38264;SDS011;24062;47.480;8.768;2024-02-21T12:37:58;6.47;;;3.83;;
38264;SDS011;24062;47.480;8.768;2024-02-21T12:40:26;7.77;;;4.30;;
38264;SDS011;24062;47.480;8.768;2024-02-21T12:42:57;10.90;;;4.37;;
38264;SDS011;24062;47.480;8.768;2024-02-21T12:45:26;8.40;;;4.37;;
38264;SDS011;24062;47.480;8.768;2024-02-21T12:47:53;10.70;;;5.27;;
38264;SDS011;24062;47.480;8.768;2024-02-21T12:50:20;6.90;;;4.13;;
38264;SDS011;24062;47.480;8.768;2024-02-21T12:52:47;8.20;;;4.10;;
38264;SDS011;24062;47.480;8.768;2024-02-21T12:55:15;8.77;;;5.10;;
38264;SDS011;24062;47.480;8.768;2024-02-21T12:57:42;8.10;;;4.50;;
38264;SDS011;24062;47.480;8.768;2024-02-21T13:00:09;11.30;;;4.47;;
38264;SDS011;24062;47.480;8.768;2024-02-21T13:02:38;13.00;;;4.77;;
38264;SDS011;24062;47.480;8.768;2024-02-21T13:05:06;7.17;;;3.87;;
38264;SDS011;24062;47.480;8.768;2024-02-21T13:07:33;9.73;;;3.97;;
38264;SDS011;24062;47.480;8.768;2024-02-21T13:10:00;8.00;;;4.10;;
38264;SDS011;24062;47.480;8.768;2024-02-21T13:12:28;6.97;;;4.00;;
38264;SDS011;24062;47.480;8.768;2024-02-21T13:14:55;6.23;;;3.40;;
38264;SDS011;24062;47.480;8.768;2024-02-21T13:17:22;7.73;;;4.60;;
38264;SDS011;24062;47.480;8.768;2024-02-21T13:19:50;4.40;;;3.40;;
38264;SDS011;24062;47.480;8.768;2024-02-21T13:22:17;8.13;;;4.07;;
38264;SDS011;24062;47.480;8.768;2024-02-21T13:24:47;8.80;;;3.97;;
38264;SDS011;24062;47.480;8.768;2024-02-21T13:27:14;6.13;;;3.70;;
38264;SDS011;24062;47.480;8.768;2024-02-21T13:29:41;7.80;;;4.13;;
38264;SDS011;24062;47.480;8.768;2024-02-21T13:32:07;5.40;;;3.70;;
38264;SDS011;24062;47.480;8.768;2024-02-21T13:34:34;6.70;;;3.50;;
38264;SDS011;24062;47.480;8.768;2024-02-21T13:37:03;6.00;;;3.80;;
38264;SDS011;24062;47.480;8.768;2024-02-21T13:39:32;5.50;;;3.37;;
38264;SDS011;24062;47.480;8.768;2024-02-21T13:41:59;5.67;;;3.43;;
38264;SDS011;24062;47.480;8.768;2024-02-21T13:44:26;5.53;;;3.67;;
38264;SDS011;24062;47.480;8.768;2024-02-21T13:46:53;5.73;;;3.53;;
38264;SDS011;24062;47.480;8.768;2024-02-21T13:49:20;6.80;;;3.27;;
38264;SDS011;24062;47.480;8.768;2024-02-21T13:51:47;5.40;;;2.70;;
38264;SDS011;24062;47.480;8.768;2024-02-21T13:54:15;11.07;;;3.57;;
38264;SDS011;24062;47.480;8.768;2024-02-21T13:56:44;6.97;;;3.50;;
38264;SDS011;24062;47.480;8.768;2024-02-21T13:59:11;5.60;;;2.80;;
38264;SDS011;24062;47.480;8.768;2024-02-21T14:01:38;3.97;;;3.07;;
38264;SDS011;24062;47.480;8.768;2024-02-21T14:04:05;3.90;;;2.60;;
38264;SDS011;24062;47.480;8.768;2024-02-21T14:06:32;7.30;;;3.30;;
38264;SDS011;24062;47.480;8.768;2024-02-21T14:08:59;4.23;;;2.57;;
38264;SDS011;24062;47.480;8.768;2024-02-21T14:11:27;4.63;;;2.80;;
38264;SDS011;24062;47.480;8.768;2024-02-21T14:13:55;6.80;;;2.90;;
38264;SDS011;24062;47.480;8.768;2024-02-21T14:16:22;7.13;;;3.20;;
38264;SDS011;24062;47.480;8.768;2024-02-21T14:18:49;6.07;;;2.90;;
38264;SDS011;24062;47.480;8.768;2024-02-21T14:21:16;5.13;;;2.23;;
38264;SDS011;24062;47.480;8.768;2024-02-21T14:23:43;5.00;;;3.27;;
38264;SDS011;24062;47.480;8.768;2024-02-21T14:26:10;4.90;;;3.17;;
38264;SDS011;24062;47.480;8.768;2024-02-21T14:28:38;6.33;;;2.57;;
38264;SDS011;24062;47.480;8.768;2024-02-21T14:31:05;5.57;;;2.60;;
38264;SDS011;24062;47.480;8.768;2024-02-21T14:33:34;4.17;;;2.60;;
38264;SDS011;24062;47.480;8.768;2024-02-21T14:36:01;4.43;;;3.10;;
38264;SDS011;24062;47.480;8.768;2024-02-21T14:38:28;8.33;;;2.30;;
38264;SDS011;24062;47.480;8.768;2024-02-21T14:40:55;4.70;;;2.00;;
38264;SDS011;24062;47.480;8.768;2024-02-21T14:43:22;6.27;;;2.70;;
38264;SDS011;24062;47.480;8.768;2024-02-21T14:45:50;5.90;;;2.20;;
38264;SDS011;24062;47.480;8.768;2024-02-21T14:48:17;5.10;;;2.23;;
38264;SDS011;24062;47.480;8.768;2024-02-21T14:50:46;4.10;;;2.17;;
38264;SDS011;24062;47.480;8.768;2024-02-21T14:53:13;4.70;;;2.37;;